VYYY/RGN METAR and TAF weather

Enter ICAO airport designator
Station Type Date Time Source
VYYY METAR 2020/04/04 11:30 UTC NOAA

VYYY 041130Z 21004KT 6000 NSC 36/21 Q1007 NOSIG


Station Type Date Time Source
VYYY Decoded METAR 2020/04/04 11:30 UTC NOAA

Yangon, Myanmar (VYYY) 16-46N 096-10E 15M
Apr 04, 2020 - 07:30 AM EDT / 2020.04.04 1130 UTC
Wind: from the SSW (210 degrees) at 5 MPH (4 KT):0
Visibility: 3 mile(s):0
Temperature: 96 F (36 C)
Heat index: 101.5 F (38.6 C):1
Dew Point: 69 F (21 C)
Relative Humidity: 41%
Pressure (altimeter): 29.74 in. Hg (1007 hPa)
ob: VYYY 041130Z 21004KT 6000 NSC 36/21 Q1007 NOSIG
cycle: 11

Station Type Date Time Source
VYYY TAF 2020/04/04 12:39 UTC NOAA

TAF TAF VYYY 041100Z 0412/0512 32005KT 8000 NSC
TEMPO 0412/0418 32010KT 6000 HZ
BECMG 0500/0502 3000 BR

Example: see airport list